sensor_id;sensor_type;location;lat;lon;timestamp;P1;durP1;ratioP1;P2;durP2;ratioP2
51758;SDS011;66684;47.568;18.734;2023-03-01T00:01:23;22.00;;;14.55;;
51758;SDS011;66684;47.568;18.734;2023-03-01T00:03:51;25.50;;;14.93;;
51758;SDS011;66684;47.568;18.734;2023-03-01T00:06:17;25.15;;;14.93;;
51758;SDS011;66684;47.568;18.734;2023-03-01T00:08:44;25.52;;;15.75;;
51758;SDS011;66684;47.568;18.734;2023-03-01T00:13:46;26.80;;;15.05;;
51758;SDS011;66684;47.568;18.734;2023-03-01T00:16:14;26.60;;;15.32;;
51758;SDS011;66684;47.568;18.734;2023-03-01T00:18:42;22.20;;;13.90;;
51758;SDS011;66684;47.568;18.734;2023-03-01T00:21:08;23.05;;;14.40;;
51758;SDS011;66684;47.568;18.734;2023-03-01T00:23:34;23.90;;;14.25;;
51758;SDS011;66684;47.568;18.734;2023-03-01T00:26:01;23.08;;;14.82;;
51758;SDS011;66684;47.568;18.734;2023-03-01T00:28:27;22.55;;;14.75;;
51758;SDS011;66684;47.568;18.734;2023-03-01T00:30:53;24.17;;;14.40;;
51758;SDS011;66684;47.568;18.734;2023-03-01T00:33:19;23.17;;;14.50;;
51758;SDS011;66684;47.568;18.734;2023-03-01T00:35:45;24.70;;;14.77;;
51758;SDS011;66684;47.568;18.734;2023-03-01T00:38:11;22.95;;;13.93;;
51758;SDS011;66684;47.568;18.734;2023-03-01T00:40:37;22.55;;;13.90;;
51758;SDS011;66684;47.568;18.734;2023-03-01T00:43:03;23.50;;;13.55;;
51758;SDS011;66684;47.568;18.734;2023-03-01T00:45:29;23.48;;;13.20;;
51758;SDS011;66684;47.568;18.734;2023-03-01T00:47:56;19.40;;;12.00;;
51758;SDS011;66684;47.568;18.734;2023-03-01T00:50:23;19.70;;;12.15;;
51758;SDS011;66684;47.568;18.734;2023-03-01T00:52:52;20.60;;;12.20;;
51758;SDS011;66684;47.568;18.734;2023-03-01T00:55:21;18.50;;;12.37;;
51758;SDS011;66684;47.568;18.734;2023-03-01T00:57:48;19.90;;;12.32;;
51758;SDS011;66684;47.568;18.734;2023-03-01T01:00:14;20.50;;;12.45;;
51758;SDS011;66684;47.568;18.734;2023-03-01T01:02:40;19.05;;;12.07;;
51758;SDS011;66684;47.568;18.734;2023-03-01T01:05:06;21.37;;;12.70;;
51758;SDS011;66684;47.568;18.734;2023-03-01T01:07:32;17.90;;;11.55;;
51758;SDS011;66684;47.568;18.734;2023-03-01T01:09:58;19.25;;;12.00;;
51758;SDS011;66684;47.568;18.734;2023-03-01T01:12:24;21.95;;;12.25;;
51758;SDS011;66684;47.568;18.734;2023-03-01T01:14:50;20.42;;;12.48;;
51758;SDS011;66684;47.568;18.734;2023-03-01T01:17:16;18.92;;;11.60;;
51758;SDS011;66684;47.568;18.734;2023-03-01T01:19:42;18.73;;;11.15;;
51758;SDS011;66684;47.568;18.734;2023-03-01T01:22:08;21.12;;;12.10;;
51758;SDS011;66684;47.568;18.734;2023-03-01T01:24:34;22.20;;;13.85;;
51758;SDS011;66684;47.568;18.734;2023-03-01T01:27:00;17.42;;;10.70;;
51758;SDS011;66684;47.568;18.734;2023-03-01T01:29:26;20.35;;;11.15;;
51758;SDS011;66684;47.568;18.734;2023-03-01T01:31:52;19.17;;;10.55;;
51758;SDS011;66684;47.568;18.734;2023-03-01T01:34:19;17.45;;;10.05;;
51758;SDS011;66684;47.568;18.734;2023-03-01T01:36:50;16.92;;;10.57;;
51758;SDS011;66684;47.568;18.734;2023-03-01T01:39:21;16.30;;;10.68;;
51758;SDS011;66684;47.568;18.734;2023-03-01T01:41:48;17.02;;;10.50;;
51758;SDS011;66684;47.568;18.734;2023-03-01T01:44:24;16.70;;;11.05;;
51758;SDS011;66684;47.568;18.734;2023-03-01T01:55:07;19.90;;;12.02;;
51758;SDS011;66684;47.568;18.734;2023-03-01T01:57:40;19.12;;;12.37;;
51758;SDS011;66684;47.568;18.734;2023-03-01T02:00:11;18.48;;;11.20;;
51758;SDS011;66684;47.568;18.734;2023-03-01T02:02:43;16.98;;;11.35;;
51758;SDS011;66684;47.568;18.734;2023-03-01T02:05:13;16.33;;;11.43;;
51758;SDS011;66684;47.568;18.734;2023-03-01T02:07:46;24.33;;;15.45;;
51758;SDS011;66684;47.568;18.734;2023-03-01T02:10:13;21.60;;;14.80;;
51758;SDS011;66684;47.568;18.734;2023-03-01T02:12:40;16.10;;;11.15;;
51758;SDS011;66684;47.568;18.734;2023-03-01T02:15:07;15.98;;;10.30;;
51758;SDS011;66684;47.568;18.734;2023-03-01T02:17:33;16.15;;;9.75;;
51758;SDS011;66684;47.568;18.734;2023-03-01T02:20:03;15.10;;;9.05;;
51758;SDS011;66684;47.568;18.734;2023-03-01T02:22:38;15.70;;;9.70;;
51758;SDS011;66684;47.568;18.734;2023-03-01T02:25:12;17.02;;;9.80;;
51758;SDS011;66684;47.568;18.734;2023-03-01T02:28:10;15.63;;;10.32;;
51758;SDS011;66684;47.568;18.734;2023-03-01T02:30:44;17.42;;;10.88;;
51758;SDS011;66684;47.568;18.734;2023-03-01T02:33:32;21.77;;;10.98;;
51758;SDS011;66684;47.568;18.734;2023-03-01T02:36:06;22.85;;;10.52;;
51758;SDS011;66684;47.568;18.734;2023-03-01T02:38:34;17.90;;;10.93;;
51758;SDS011;66684;47.568;18.734;2023-03-01T02:41:01;15.23;;;10.52;;
51758;SDS011;66684;47.568;18.734;2023-03-01T02:43:30;18.90;;;10.90;;
51758;SDS011;66684;47.568;18.734;2023-03-01T02:46:03;17.02;;;10.77;;
51758;SDS011;66684;47.568;18.734;2023-03-01T02:48:41;18.73;;;11.18;;
51758;SDS011;66684;47.568;18.734;2023-03-01T02:56:47;16.92;;;10.35;;
51758;SDS011;66684;47.568;18.734;2023-03-01T02:59:16;20.20;;;11.88;;
51758;SDS011;66684;47.568;18.734;2023-03-01T03:01:45;16.83;;;11.52;;
51758;SDS011;66684;47.568;18.734;2023-03-01T03:04:13;17.45;;;11.57;;
51758;SDS011;66684;47.568;18.734;2023-03-01T03:06:47;17.10;;;10.77;;
51758;SDS011;66684;47.568;18.734;2023-03-01T03:09:15;20.75;;;12.13;;
51758;SDS011;66684;47.568;18.734;2023-03-01T03:11:41;17.70;;;11.10;;
51758;SDS011;66684;47.568;18.734;2023-03-01T03:14:09;17.48;;;11.10;;
51758;SDS011;66684;47.568;18.734;2023-03-01T03:16:41;16.25;;;10.57;;
51758;SDS011;66684;47.568;18.734;2023-03-01T03:19:08;18.80;;;11.43;;
51758;SDS011;66684;47.568;18.734;2023-03-01T03:21:34;15.85;;;10.65;;
51758;SDS011;66684;47.568;18.734;2023-03-01T03:24:01;16.67;;;11.00;;
51758;SDS011;66684;47.568;18.734;2023-03-01T03:26:27;14.20;;;10.15;;
51758;SDS011;66684;47.568;18.734;2023-03-01T03:28:53;17.40;;;10.25;;
51758;SDS011;66684;47.568;18.734;2023-03-01T03:31:19;15.98;;;10.23;;
51758;SDS011;66684;47.568;18.734;2023-03-01T03:33:45;20.30;;;11.23;;
51758;SDS011;66684;47.568;18.734;2023-03-01T03:36:21;18.75;;;10.90;;
51758;SDS011;66684;47.568;18.734;2023-03-01T03:38:48;15.55;;;9.90;;
51758;SDS011;66684;47.568;18.734;2023-03-01T03:41:14;16.77;;;10.75;;
51758;SDS011;66684;47.568;18.734;2023-03-01T03:43:41;16.73;;;10.40;;
51758;SDS011;66684;47.568;18.734;2023-03-01T03:46:09;16.00;;;10.82;;
51758;SDS011;66684;47.568;18.734;2023-03-01T03:48:40;17.77;;;10.80;;
51758;SDS011;66684;47.568;18.734;2023-03-01T03:51:12;15.52;;;11.07;;
51758;SDS011;66684;47.568;18.734;2023-03-01T03:53:40;16.20;;;11.00;;
51758;SDS011;66684;47.568;18.734;2023-03-01T03:56:06;16.05;;;10.98;;
51758;SDS011;66684;47.568;18.734;2023-03-01T03:58:32;18.33;;;11.77;;
51758;SDS011;66684;47.568;18.734;2023-03-01T04:00:58;20.60;;;11.90;;
51758;SDS011;66684;47.568;18.734;2023-03-01T04:03:26;17.85;;;10.70;;
51758;SDS011;66684;47.568;18.734;2023-03-01T04:05:53;21.20;;;11.93;;
51758;SDS011;66684;47.568;18.734;2023-03-01T04:08:20;19.65;;;10.68;;
51758;SDS011;66684;47.568;18.734;2023-03-01T04:10:49;17.52;;;11.15;;
51758;SDS011;66684;47.568;18.734;2023-03-01T04:13:17;17.73;;;9.77;;
51758;SDS011;66684;47.568;18.734;2023-03-01T04:15:48;22.27;;;10.98;;
51758;SDS011;66684;47.568;18.734;2023-03-01T04:18:16;19.73;;;11.05;;
51758;SDS011;66684;47.568;18.734;2023-03-01T04:20:43;18.85;;;10.40;;
51758;SDS011;66684;47.568;18.734;2023-03-01T04:23:14;19.90;;;9.73;;
51758;SDS011;66684;47.568;18.734;2023-03-01T04:28:24;17.67;;;10.95;;
51758;SDS011;66684;47.568;18.734;2023-03-01T04:30:50;20.85;;;10.95;;
51758;SDS011;66684;47.568;18.734;2023-03-01T04:33:16;18.87;;;10.20;;
51758;SDS011;66684;47.568;18.734;2023-03-01T04:35:43;16.65;;;10.80;;
51758;SDS011;66684;47.568;18.734;2023-03-01T04:38:09;17.87;;;11.38;;
51758;SDS011;66684;47.568;18.734;2023-03-01T04:40:35;16.73;;;11.38;;
51758;SDS011;66684;47.568;18.734;2023-03-01T04:43:02;20.62;;;11.40;;
51758;SDS011;66684;47.568;18.734;2023-03-01T04:45:29;17.52;;;11.75;;
51758;SDS011;66684;47.568;18.734;2023-03-01T04:47:55;22.67;;;12.63;;
51758;SDS011;66684;47.568;18.734;2023-03-01T04:50:23;19.60;;;12.50;;
51758;SDS011;66684;47.568;18.734;2023-03-01T04:52:51;16.80;;;12.10;;
51758;SDS011;66684;47.568;18.734;2023-03-01T04:55:17;19.42;;;12.23;;
51758;SDS011;66684;47.568;18.734;2023-03-01T04:57:43;19.27;;;12.60;;
51758;SDS011;66684;47.568;18.734;2023-03-01T05:00:10;19.08;;;12.48;;
51758;SDS011;66684;47.568;18.734;2023-03-01T05:02:51;18.48;;;11.93;;
51758;SDS011;66684;47.568;18.734;2023-03-01T05:05:29;17.98;;;12.20;;
51758;SDS011;66684;47.568;18.734;2023-03-01T05:07:58;17.83;;;11.50;;
51758;SDS011;66684;47.568;18.734;2023-03-01T05:10:27;17.12;;;11.88;;
51758;SDS011;66684;47.568;18.734;2023-03-01T05:12:57;21.70;;;12.20;;
51758;SDS011;66684;47.568;18.734;2023-03-01T05:15:27;22.77;;;11.27;;
51758;SDS011;66684;47.568;18.734;2023-03-01T05:17:55;16.60;;;11.00;;
51758;SDS011;66684;47.568;18.734;2023-03-01T05:20:27;20.45;;;11.90;;
51758;SDS011;66684;47.568;18.734;2023-03-01T05:22:55;19.08;;;10.77;;
51758;SDS011;66684;47.568;18.734;2023-03-01T05:25:24;16.62;;;10.90;;
51758;SDS011;66684;47.568;18.734;2023-03-01T05:27:50;15.25;;;10.82;;
51758;SDS011;66684;47.568;18.734;2023-03-01T05:30:17;21.33;;;11.35;;
51758;SDS011;66684;47.568;18.734;2023-03-01T05:32:44;17.45;;;10.90;;
51758;SDS011;66684;47.568;18.734;2023-03-01T05:35:12;16.95;;;10.80;;
51758;SDS011;66684;47.568;18.734;2023-03-01T05:37:41;15.55;;;11.27;;
51758;SDS011;66684;47.568;18.734;2023-03-01T05:40:12;17.73;;;10.75;;
51758;SDS011;66684;47.568;18.734;2023-03-01T05:42:45;17.70;;;11.07;;
51758;SDS011;66684;47.568;18.734;2023-03-01T05:45:13;16.12;;;10.13;;
51758;SDS011;66684;47.568;18.734;2023-03-01T05:47:40;19.15;;;11.25;;
51758;SDS011;66684;47.568;18.734;2023-03-01T05:50:11;17.85;;;10.63;;
51758;SDS011;66684;47.568;18.734;2023-03-01T05:52:48;19.17;;;12.48;;
51758;SDS011;66684;47.568;18.734;2023-03-01T05:55:17;20.90;;;12.50;;
51758;SDS011;66684;47.568;18.734;2023-03-01T05:57:45;19.15;;;11.88;;
51758;SDS011;66684;47.568;18.734;2023-03-01T06:00:11;17.98;;;11.18;;
51758;SDS011;66684;47.568;18.734;2023-03-01T06:02:39;22.27;;;11.02;;
51758;SDS011;66684;47.568;18.734;2023-03-01T06:05:06;22.95;;;11.25;;
51758;SDS011;66684;47.568;18.734;2023-03-01T06:07:34;20.20;;;12.52;;
51758;SDS011;66684;47.568;18.734;2023-03-01T06:10:01;22.13;;;12.18;;
51758;SDS011;66684;47.568;18.734;2023-03-01T06:12:31;21.37;;;12.20;;
51758;SDS011;66684;47.568;18.734;2023-03-01T06:14:58;21.33;;;10.55;;
51758;SDS011;66684;47.568;18.734;2023-03-01T06:17:25;19.08;;;11.30;;
51758;SDS011;66684;47.568;18.734;2023-03-01T06:19:51;18.27;;;11.60;;
51758;SDS011;66684;47.568;18.734;2023-03-01T06:22:17;17.65;;;10.80;;
51758;SDS011;66684;47.568;18.734;2023-03-01T06:24:43;17.10;;;9.65;;
51758;SDS011;66684;47.568;18.734;2023-03-01T06:27:09;18.65;;;11.00;;
51758;SDS011;66684;47.568;18.734;2023-03-01T06:29:34;18.50;;;11.60;;
51758;SDS011;66684;47.568;18.734;2023-03-01T06:32:01;18.02;;;11.23;;
51758;SDS011;66684;47.568;18.734;2023-03-01T06:34:28;18.80;;;11.60;;
51758;SDS011;66684;47.568;18.734;2023-03-01T06:36:54;18.60;;;11.77;;
51758;SDS011;66684;47.568;18.734;2023-03-01T06:39:20;19.37;;;11.52;;
51758;SDS011;66684;47.568;18.734;2023-03-01T06:41:46;16.48;;;11.18;;
51758;SDS011;66684;47.568;18.734;2023-03-01T06:44:12;17.35;;;11.38;;
51758;SDS011;66684;47.568;18.734;2023-03-01T06:46:38;19.67;;;11.52;;
51758;SDS011;66684;47.568;18.734;2023-03-01T06:49:05;19.33;;;11.32;;
51758;SDS011;66684;47.568;18.734;2023-03-01T06:51:35;19.92;;;11.55;;
51758;SDS011;66684;47.568;18.734;2023-03-01T06:54:03;19.23;;;11.20;;
51758;SDS011;66684;47.568;18.734;2023-03-01T06:56:32;19.87;;;11.35;;
51758;SDS011;66684;47.568;18.734;2023-03-01T06:58:58;23.80;;;12.65;;
51758;SDS011;66684;47.568;18.734;2023-03-01T07:01:24;20.50;;;12.18;;
51758;SDS011;66684;47.568;18.734;2023-03-01T07:03:50;18.70;;;12.30;;
51758;SDS011;66684;47.568;18.734;2023-03-01T07:06:15;26.70;;;15.68;;
51758;SDS011;66684;47.568;18.734;2023-03-01T07:08:43;21.08;;;13.00;;
51758;SDS011;66684;47.568;18.734;2023-03-01T07:11:09;21.70;;;12.77;;
51758;SDS011;66684;47.568;18.734;2023-03-01T07:13:35;21.15;;;12.65;;
51758;SDS011;66684;47.568;18.734;2023-03-01T07:16:00;22.35;;;13.10;;
51758;SDS011;66684;47.568;18.734;2023-03-01T07:18:26;23.15;;;12.98;;
51758;SDS011;66684;47.568;18.734;2023-03-01T07:20:52;22.80;;;13.77;;
51758;SDS011;66684;47.568;18.734;2023-03-01T07:23:18;19.45;;;12.13;;
51758;SDS011;66684;47.568;18.734;2023-03-01T07:25:44;22.00;;;13.60;;
51758;SDS011;66684;47.568;18.734;2023-03-01T07:28:17;20.98;;;12.93;;
51758;SDS011;66684;47.568;18.734;2023-03-01T07:30:43;23.67;;;13.35;;
51758;SDS011;66684;47.568;18.734;2023-03-01T07:33:09;23.48;;;13.60;;
51758;SDS011;66684;47.568;18.734;2023-03-01T07:35:34;20.65;;;12.57;;
51758;SDS011;66684;47.568;18.734;2023-03-01T07:38:00;23.60;;;12.90;;
51758;SDS011;66684;47.568;18.734;2023-03-01T07:40:26;19.15;;;12.50;;
51758;SDS011;66684;47.568;18.734;2023-03-01T07:42:56;21.77;;;12.45;;
51758;SDS011;66684;47.568;18.734;2023-03-01T07:45:22;22.80;;;12.60;;
51758;SDS011;66684;47.568;18.734;2023-03-01T07:47:49;24.83;;;12.02;;
51758;SDS011;66684;47.568;18.734;2023-03-01T07:50:16;17.52;;;11.55;;
51758;SDS011;66684;47.568;18.734;2023-03-01T07:52:44;19.25;;;11.95;;
51758;SDS011;66684;47.568;18.734;2023-03-01T07:55:11;20.25;;;11.43;;
51758;SDS011;66684;47.568;18.734;2023-03-01T07:57:37;17.27;;;10.50;;
51758;SDS011;66684;47.568;18.734;2023-03-01T08:00:03;16.60;;;10.32;;
51758;SDS011;66684;47.568;18.734;2023-03-01T08:02:29;18.40;;;10.15;;
51758;SDS011;66684;47.568;18.734;2023-03-01T08:04:55;16.95;;;9.20;;
51758;SDS011;66684;47.568;18.734;2023-03-01T08:07:21;16.87;;;10.68;;
51758;SDS011;66684;47.568;18.734;2023-03-01T08:09:47;17.85;;;10.27;;
51758;SDS011;66684;47.568;18.734;2023-03-01T08:12:13;17.00;;;10.65;;
51758;SDS011;66684;47.568;18.734;2023-03-01T08:14:39;16.77;;;9.50;;
51758;SDS011;66684;47.568;18.734;2023-03-01T08:17:05;16.05;;;10.40;;
51758;SDS011;66684;47.568;18.734;2023-03-01T08:19:30;17.15;;;10.20;;
51758;SDS011;66684;47.568;18.734;2023-03-01T08:21:56;15.13;;;9.45;;
51758;SDS011;66684;47.568;18.734;2023-03-01T08:24:23;16.65;;;9.50;;
51758;SDS011;66684;47.568;18.734;2023-03-01T08:26:49;17.58;;;9.60;;
51758;SDS011;66684;47.568;18.734;2023-03-01T08:29:15;17.73;;;10.05;;
51758;SDS011;66684;47.568;18.734;2023-03-01T08:31:41;17.30;;;10.23;;
51758;SDS011;66684;47.568;18.734;2023-03-01T08:34:08;15.73;;;9.10;;
51758;SDS011;66684;47.568;18.734;2023-03-01T08:36:37;17.37;;;10.15;;
51758;SDS011;66684;47.568;18.734;2023-03-01T08:39:07;15.07;;;9.02;;
51758;SDS011;66684;47.568;18.734;2023-03-01T08:41:35;15.65;;;9.65;;
51758;SDS011;66684;47.568;18.734;2023-03-01T08:44:02;14.05;;;9.02;;
51758;SDS011;66684;47.568;18.734;2023-03-01T08:46:29;16.25;;;9.40;;
51758;SDS011;66684;47.568;18.734;2023-03-01T08:48:57;15.65;;;9.05;;
51758;SDS011;66684;47.568;18.734;2023-03-01T08:51:23;15.32;;;9.20;;
51758;SDS011;66684;47.568;18.734;2023-03-01T08:53:50;12.82;;;8.23;;
51758;SDS011;66684;47.568;18.734;2023-03-01T08:56:16;17.20;;;9.40;;
51758;SDS011;66684;47.568;18.734;2023-03-01T08:58:44;14.48;;;8.50;;
51758;SDS011;66684;47.568;18.734;2023-03-01T09:01:13;14.00;;;8.95;;
51758;SDS011;66684;47.568;18.734;2023-03-01T09:03:41;12.85;;;8.13;;
51758;SDS011;66684;47.568;18.734;2023-03-01T09:06:08;15.95;;;8.32;;
51758;SDS011;66684;47.568;18.734;2023-03-01T09:08:39;13.38;;;8.38;;
51758;SDS011;66684;47.568;18.734;2023-03-01T09:11:10;15.73;;;8.23;;
51758;SDS011;66684;47.568;18.734;2023-03-01T09:13:38;15.25;;;8.30;;
51758;SDS011;66684;47.568;18.734;2023-03-01T09:16:05;14.18;;;8.38;;
51758;SDS011;66684;47.568;18.734;2023-03-01T09:18:32;16.80;;;8.90;;
51758;SDS011;66684;47.568;18.734;2023-03-01T09:21:09;16.85;;;9.70;;
51758;SDS011;66684;47.568;18.734;2023-03-01T09:23:42;12.23;;;8.33;;
51758;SDS011;66684;47.568;18.734;2023-03-01T09:26:11;13.18;;;8.45;;
51758;SDS011;66684;47.568;18.734;2023-03-01T09:28:45;11.00;;;7.62;;
51758;SDS011;66684;47.568;18.734;2023-03-01T09:31:12;18.25;;;10.80;;
51758;SDS011;66684;47.568;18.734;2023-03-01T09:33:39;14.45;;;7.85;;
51758;SDS011;66684;47.568;18.734;2023-03-01T09:36:11;13.60;;;7.70;;
51758;SDS011;66684;47.568;18.734;2023-03-01T09:38:38;14.23;;;7.47;;
51758;SDS011;66684;47.568;18.734;2023-03-01T09:44:10;14.43;;;8.07;;
51758;SDS011;66684;47.568;18.734;2023-03-01T09:46:52;15.35;;;8.93;;
51758;SDS011;66684;47.568;18.734;2023-03-01T09:49:27;14.18;;;7.97;;
51758;SDS011;66684;47.568;18.734;2023-03-01T09:51:57;11.25;;;7.62;;
51758;SDS011;66684;47.568;18.734;2023-03-01T09:54:26;11.50;;;6.93;;
51758;SDS011;66684;47.568;18.734;2023-03-01T09:57:06;12.02;;;8.25;;
51758;SDS011;66684;47.568;18.734;2023-03-01T09:59:56;14.77;;;9.60;;
51758;SDS011;66684;47.568;18.734;2023-03-01T10:02:45;14.02;;;7.75;;
51758;SDS011;66684;47.568;18.734;2023-03-01T10:05:30;14.05;;;7.90;;
51758;SDS011;66684;47.568;18.734;2023-03-01T10:10:32;11.10;;;6.70;;
51758;SDS011;66684;47.568;18.734;2023-03-01T10:13:46;18.27;;;7.62;;
51758;SDS011;66684;47.568;18.734;2023-03-01T10:16:05;13.25;;;7.43;;
51758;SDS011;66684;47.568;18.734;2023-03-01T10:21:11;11.38;;;6.68;;
51758;SDS011;66684;47.568;18.734;2023-03-01T10:23:42;13.62;;;8.00;;
51758;SDS011;66684;47.568;18.734;2023-03-01T10:26:28;11.55;;;7.68;;
51758;SDS011;66684;47.568;18.734;2023-03-01T10:29:03;12.50;;;7.87;;
51758;SDS011;66684;47.568;18.734;2023-03-01T10:31:47;14.87;;;8.70;;
51758;SDS011;66684;47.568;18.734;2023-03-01T10:34:19;15.20;;;7.62;;
51758;SDS011;66684;47.568;18.734;2023-03-01T10:36:50;12.07;;;6.93;;
51758;SDS011;66684;47.568;18.734;2023-03-01T10:39:19;15.18;;;7.80;;
51758;SDS011;66684;47.568;18.734;2023-03-01T10:42:03;11.63;;;7.35;;
51758;SDS011;66684;47.568;18.734;2023-03-01T10:44:42;10.88;;;6.50;;
51758;SDS011;66684;47.568;18.734;2023-03-01T10:47:16;10.75;;;6.80;;
51758;SDS011;66684;47.568;18.734;2023-03-01T10:52:30;9.50;;;6.50;;
51758;SDS011;66684;47.568;18.734;2023-03-01T10:57:38;12.63;;;6.03;;
51758;SDS011;66684;47.568;18.734;2023-03-01T11:00:17;9.63;;;4.45;;
51758;SDS011;66684;47.568;18.734;2023-03-01T11:03:10;8.60;;;4.78;;
51758;SDS011;66684;47.568;18.734;2023-03-01T11:05:37;7.43;;;4.55;;
51758;SDS011;66684;47.568;18.734;2023-03-01T11:08:26;8.70;;;4.47;;
51758;SDS011;66684;47.568;18.734;2023-03-01T11:14:01;6.70;;;4.10;;
51758;SDS011;66684;47.568;18.734;2023-03-01T11:16:36;8.73;;;3.67;;
51758;SDS011;66684;47.568;18.734;2023-03-01T11:21:59;8.43;;;3.90;;
51758;SDS011;66684;47.568;18.734;2023-03-01T11:24:35;7.25;;;4.12;;
51758;SDS011;66684;47.568;18.734;2023-03-01T11:27:16;10.63;;;4.50;;
51758;SDS011;66684;47.568;18.734;2023-03-01T11:29:44;9.35;;;4.60;;
51758;SDS011;66684;47.568;18.734;2023-03-01T11:32:16;6.80;;;4.15;;
51758;SDS011;66684;47.568;18.734;2023-03-01T11:34:47;11.93;;;5.78;;
51758;SDS011;66684;47.568;18.734;2023-03-01T11:37:44;5.82;;;4.28;;
51758;SDS011;66684;47.568;18.734;2023-03-01T11:40:26;7.12;;;4.37;;
51758;SDS011;66684;47.568;18.734;2023-03-01T11:43:19;8.77;;;4.53;;
51758;SDS011;66684;47.568;18.734;2023-03-01T11:51:20;7.25;;;4.18;;
51758;SDS011;66684;47.568;18.734;2023-03-01T11:53:54;7.82;;;4.37;;
51758;SDS011;66684;47.568;18.734;2023-03-01T11:56:30;10.95;;;4.55;;
51758;SDS011;66684;47.568;18.734;2023-03-01T12:07:00;6.45;;;3.92;;
51758;SDS011;66684;47.568;18.734;2023-03-01T12:09:34;5.55;;;3.85;;
51758;SDS011;66684;47.568;18.734;2023-03-01T12:12:24;8.55;;;4.28;;
51758;SDS011;66684;47.568;18.734;2023-03-01T12:23:04;9.00;;;5.70;;
51758;SDS011;66684;47.568;18.734;2023-03-01T12:25:34;11.20;;;4.70;;
51758;SDS011;66684;47.568;18.734;2023-03-01T12:33:53;7.05;;;4.45;;
51758;SDS011;66684;47.568;18.734;2023-03-01T12:50:42;7.25;;;4.07;;
51758;SDS011;66684;47.568;18.734;2023-03-01T12:53:21;11.20;;;4.10;;
51758;SDS011;66684;47.568;18.734;2023-03-01T12:55:50;9.70;;;5.50;;
51758;SDS011;66684;47.568;18.734;2023-03-01T12:58:23;7.25;;;3.65;;
51758;SDS011;66684;47.568;18.734;2023-03-01T13:01:55;14.20;;;7.95;;
51758;SDS011;66684;47.568;18.734;2023-03-01T13:23:11;11.15;;;5.30;;
51758;SDS011;66684;47.568;18.734;2023-03-01T13:28:37;10.73;;;4.47;;
51758;SDS011;66684;47.568;18.734;2023-03-01T13:44:24;13.95;;;4.22;;
51758;SDS011;66684;47.568;18.734;2023-03-01T13:49:49;8.77;;;4.80;;
51758;SDS011;66684;47.568;18.734;2023-03-01T13:52:38;7.12;;;4.90;;
51758;SDS011;66684;47.568;18.734;2023-03-01T13:55:06;24.77;;;5.97;;
51758;SDS011;66684;47.568;18.734;2023-03-01T13:57:47;12.23;;;5.45;;
51758;SDS011;66684;47.568;18.734;2023-03-01T14:00:26;11.77;;;5.85;;
51758;SDS011;66684;47.568;18.734;2023-03-01T14:03:30;13.73;;;6.35;;
51758;SDS011;66684;47.568;18.734;2023-03-01T14:05:58;8.93;;;4.90;;
51758;SDS011;66684;47.568;18.734;2023-03-01T14:08:37;9.90;;;6.00;;
51758;SDS011;66684;47.568;18.734;2023-03-01T14:11:08;14.18;;;5.78;;
51758;SDS011;66684;47.568;18.734;2023-03-01T14:19:21;9.10;;;4.85;;
51758;SDS011;66684;47.568;18.734;2023-03-01T14:24:32;15.23;;;7.60;;
51758;SDS011;66684;47.568;18.734;2023-03-01T14:27:03;9.60;;;5.30;;
51758;SDS011;66684;47.568;18.734;2023-03-01T14:29:34;21.42;;;5.55;;
51758;SDS011;66684;47.568;18.734;2023-03-01T14:32:09;10.70;;;5.65;;
51758;SDS011;66684;47.568;18.734;2023-03-01T14:40:00;10.20;;;5.12;;
51758;SDS011;66684;47.568;18.734;2023-03-01T14:42:29;9.55;;;4.82;;
51758;SDS011;66684;47.568;18.734;2023-03-01T14:45:02;14.32;;;5.12;;
51758;SDS011;66684;47.568;18.734;2023-03-01T14:47:30;9.05;;;4.70;;
51758;SDS011;66684;47.568;18.734;2023-03-01T14:50:08;13.70;;;7.57;;
51758;SDS011;66684;47.568;18.734;2023-03-01T14:52:41;16.35;;;8.02;;
51758;SDS011;66684;47.568;18.734;2023-03-01T14:55:17;14.70;;;7.95;;
51758;SDS011;66684;47.568;18.734;2023-03-01T14:57:49;14.55;;;8.98;;
51758;SDS011;66684;47.568;18.734;2023-03-01T15:00:20;15.10;;;7.90;;
51758;SDS011;66684;47.568;18.734;2023-03-01T15:02:48;14.63;;;8.20;;
51758;SDS011;66684;47.568;18.734;2023-03-01T15:05:18;18.15;;;8.73;;
51758;SDS011;66684;47.568;18.734;2023-03-01T15:07:48;16.75;;;7.90;;
51758;SDS011;66684;47.568;18.734;2023-03-01T15:10:20;15.60;;;7.43;;
51758;SDS011;66684;47.568;18.734;2023-03-01T15:12:49;11.05;;;7.30;;
51758;SDS011;66684;47.568;18.734;2023-03-01T15:15:19;19.95;;;7.30;;
51758;SDS011;66684;47.568;18.734;2023-03-01T15:17:50;15.18;;;7.50;;
51758;SDS011;66684;47.568;18.734;2023-03-01T15:20:20;15.43;;;8.60;;
51758;SDS011;66684;47.568;18.734;2023-03-01T15:22:51;14.35;;;7.60;;
51758;SDS011;66684;47.568;18.734;2023-03-01T15:25:18;14.75;;;8.43;;
51758;SDS011;66684;47.568;18.734;2023-03-01T15:27:48;12.20;;;7.53;;
51758;SDS011;66684;47.568;18.734;2023-03-01T15:30:17;14.38;;;7.90;;
51758;SDS011;66684;47.568;18.734;2023-03-01T15:32:46;13.90;;;7.62;;
51758;SDS011;66684;47.568;18.734;2023-03-01T15:38:23;11.80;;;7.68;;
51758;SDS011;66684;47.568;18.734;2023-03-01T15:40:50;13.15;;;7.37;;
51758;SDS011;66684;47.568;18.734;2023-03-01T15:46:04;13.48;;;7.60;;
51758;SDS011;66684;47.568;18.734;2023-03-01T15:48:30;11.85;;;7.50;;
51758;SDS011;66684;47.568;18.734;2023-03-01T15:50:57;12.40;;;7.12;;
51758;SDS011;66684;47.568;18.734;2023-03-01T15:53:24;18.30;;;8.18;;
51758;SDS011;66684;47.568;18.734;2023-03-01T15:55:53;12.02;;;7.47;;
51758;SDS011;66684;47.568;18.734;2023-03-01T15:58:20;14.82;;;7.72;;
51758;SDS011;66684;47.568;18.734;2023-03-01T16:00:47;14.60;;;7.57;;
51758;SDS011;66684;47.568;18.734;2023-03-01T16:03:17;11.65;;;7.55;;
51758;SDS011;66684;47.568;18.734;2023-03-01T16:05:47;29.50;;;9.40;;
51758;SDS011;66684;47.568;18.734;2023-03-01T16:08:14;11.90;;;7.00;;
51758;SDS011;66684;47.568;18.734;2023-03-01T16:10:41;12.68;;;7.43;;
51758;SDS011;66684;47.568;18.734;2023-03-01T16:13:10;9.25;;;6.90;;
51758;SDS011;66684;47.568;18.734;2023-03-01T16:15:37;14.50;;;7.97;;
51758;SDS011;66684;47.568;18.734;2023-03-01T16:18:04;16.60;;;8.02;;
51758;SDS011;66684;47.568;18.734;2023-03-01T16:20:31;13.45;;;8.25;;
51758;SDS011;66684;47.568;18.734;2023-03-01T16:22:58;13.43;;;8.52;;
51758;SDS011;66684;47.568;18.734;2023-03-01T16:25:29;16.98;;;10.55;;
51758;SDS011;66684;47.568;18.734;2023-03-01T16:27:56;14.07;;;9.70;;
51758;SDS011;66684;47.568;18.734;2023-03-01T16:30:23;17.42;;;9.95;;
51758;SDS011;66684;47.568;18.734;2023-03-01T16:32:50;12.73;;;8.10;;
51758;SDS011;66684;47.568;18.734;2023-03-01T16:35:18;11.10;;;7.90;;
51758;SDS011;66684;47.568;18.734;2023-03-01T16:37:46;16.92;;;9.20;;
51758;SDS011;66684;47.568;18.734;2023-03-01T16:40:20;18.35;;;8.20;;
51758;SDS011;66684;47.568;18.734;2023-03-01T16:42:48;13.00;;;7.68;;
51758;SDS011;66684;47.568;18.734;2023-03-01T16:45:15;14.45;;;7.78;;
51758;SDS011;66684;47.568;18.734;2023-03-01T16:47:42;23.45;;;12.13;;
51758;SDS011;66684;47.568;18.734;2023-03-01T16:50:08;25.80;;;10.77;;